Time;durP1;ratioP1;P1;durP2;ratioP2;P2;SDS_P1;SDS_P2;PMS_P1;PMS_P2;Temp;Humidity;BMP_temperature;BMP_pressure;BME280_temperature;BME280_humidity;BME280_pressure;Samples;Min_cycle;Max_cycle;Signal;HPM_P1;HPM_P2
2022/08/14 00:04:37;;;;;;;10.70;7.70;;;26.60;54.50;;;;;;5011206;51;20994;-31
2022/08/14 00:09:38;;;;;;;12.27;7.62;;;26.60;54.50;;;;;;5035447;51;21006;-36
2022/08/14 00:14:38;;;;;;;12.25;8.10;;;26.70;54.60;;;;;;5026302;51;21583;-37
2022/08/14 00:19:39;;;;;;;11.70;8.20;;;26.70;54.70;;;;;;5018341;51;20990;-34
2022/08/14 00:24:40;;;;;;;11.12;8.25;;;26.60;54.60;;;;;;5012861;51;21073;-32
2022/08/14 00:29:41;;;;;;;14.02;9.00;;;26.60;54.60;;;;;;5014143;51;20986;-28
2022/08/14 00:34:42;;;;;;;11.20;7.93;;;26.60;54.70;;;;;;5044476;51;20990;-30
2022/08/14 00:39:43;;;;;;;11.57;8.40;;;26.60;54.70;;;;;;5008930;51;21029;-28
2022/08/14 00:44:44;;;;;;;11.90;8.02;;;26.60;54.60;;;;;;5009781;51;21018;-27
2022/08/14 00:49:44;;;;;;;10.45;7.50;;;26.60;54.70;;;;;;5019622;51;20990;-31
2022/08/14 00:54:52;;;;;;;10.02;8.20;;;26.60;54.70;;;;;;5009519;51;21002;-26
2022/08/14 00:59:53;;;;;;;9.52;7.65;;;26.60;54.70;;;;;;5056378;51;21943;-30
2022/08/14 01:04:56;;;;;;;11.60;8.20;;;26.60;54.70;;;;;;5009128;51;21037;-26
2022/08/14 01:10:00;;;;;;;13.25;8.75;;;26.60;54.70;;;;;;5023532;51;20979;-32
2022/08/14 01:15:02;;;;;;;12.32;8.07;;;26.60;54.70;;;;;;5031467;51;21487;-26
2022/08/14 01:25:24;;;;;;;10.25;7.60;;;26.60;54.70;;;;;;5007285;55;21511;-27
2022/08/14 01:30:26;;;;;;;12.65;8.57;;;26.60;54.70;;;;;;5009774;51;21013;-26
2022/08/14 01:35:28;;;;;;;15.07;8.73;;;26.60;54.70;;;;;;5037067;51;21037;-32
2022/08/14 01:40:29;;;;;;;11.32;8.52;;;26.60;54.70;;;;;;5038218;51;20979;-26
2022/08/14 01:45:29;;;;;;;11.82;8.57;;;26.60;54.80;;;;;;5026636;51;20997;-29
2022/08/14 01:50:33;;;;;;;15.93;9.02;;;26.60;54.80;;;;;;5021900;51;21014;-28
2022/08/14 01:55:38;;;;;;;13.10;9.52;;;26.60;54.70;;;;;;5060681;51;21014;-33
2022/08/14 02:00:38;;;;;;;13.73;9.25;;;26.60;54.70;;;;;;5007990;52;21279;-31
2022/08/14 02:05:40;;;;;;;14.57;9.95;;;26.60;54.80;;;;;;5011664;51;21522;-27
2022/08/14 02:10:42;;;;;;;17.00;10.57;;;26.50;54.60;;;;;;5011125;51;21948;-26
2022/08/14 02:15:43;;;;;;;18.30;11.05;;;26.50;54.50;;;;;;5007324;55;21141;-28
2022/08/14 02:20:44;;;;;;;15.27;11.15;;;26.60;54.70;;;;;;5036155;51;21498;-27
2022/08/14 02:25:45;;;;;;;17.42;11.90;;;26.50;54.70;;;;;;5027876;51;21002;-36
2022/08/14 02:30:45;;;;;;;18.48;12.00;;;26.50;54.50;;;;;;5007562;55;21562;-31
2022/08/14 02:35:46;;;;;;;19.02;12.55;;;26.50;54.60;;;;;;5031230;51;21061;-34
2022/08/14 02:40:50;;;;;;;18.05;12.68;;;26.50;54.50;;;;;;5047080;51;20998;-28
2022/08/14 02:45:52;;;;;;;19.40;12.85;;;26.50;54.60;;;;;;5043997;51;21060;-32
2022/08/14 02:50:53;;;;;;;19.10;13.00;;;26.50;54.60;;;;;;5020362;51;21061;-28
2022/08/14 02:55:55;;;;;;;19.08;13.50;;;26.50;54.70;;;;;;5024521;51;21041;-29
2022/08/14 03:00:56;;;;;;;20.95;13.07;;;26.50;54.60;;;;;;5012561;51;20982;-27
2022/08/14 03:05:58;;;;;;;22.67;14.70;;;26.50;54.70;;;;;;5059812;51;21444;-36
2022/08/14 03:11:05;;;;;;;26.48;15.73;;;26.50;54.60;;;;;;5104390;51;21479;-27
2022/08/14 03:16:09;;;;;;;;;;;26.50;54.60;;;;;;5029028;51;21062;-30
2022/08/14 03:21:13;;;;;;;30.52;18.83;;;26.50;54.60;;;;;;5033216;51;20326;-26
2022/08/14 03:26:17;;;;;;;32.90;20.12;;;26.50;54.50;;;;;;5024669;51;21475;-27
2022/08/14 03:31:21;;;;;;;36.17;21.83;;;26.50;54.50;;;;;;5024526;51;21055;-36
2022/08/14 03:36:22;;;;;;;36.97;22.65;;;26.50;54.40;;;;;;5044707;51;21013;-26
2022/08/14 03:41:25;;;;;;;37.83;24.15;;;26.50;54.40;;;;;;5051952;51;21074;-31
2022/08/14 03:46:34;;;;;;;42.35;25.60;;;26.50;54.40;;;;;;5032411;51;20998;-32
2022/08/14 03:51:36;;;;;;;41.37;25.92;;;26.50;54.40;;;;;;5026839;51;21097;-29
2022/08/14 03:56:39;;;;;;;45.97;27.83;;;26.50;54.30;;;;;;5048898;51;21614;-33
2022/08/14 04:01:40;;;;;;;49.67;28.75;;;26.50;54.40;;;;;;5021094;51;21457;-29
2022/08/14 04:06:41;;;;;;;51.35;29.55;;;26.50;54.40;;;;;;5008423;52;21463;-29
2022/08/14 04:11:42;;;;;;;55.58;31.87;;;26.40;54.40;;;;;;5021632;51;20974;-29
2022/08/14 04:16:46;;;;;;;51.22;30.62;;;26.40;54.40;;;;;;5010976;51;21014;-27
2022/08/14 04:21:47;;;;;;;62.15;34.72;;;26.40;54.30;;;;;;5033593;51;21491;-28
2022/08/14 04:26:49;;;;;;;60.95;34.97;;;26.40;54.30;;;;;;5049713;51;21038;-35
2022/08/14 04:31:49;;;;;;;65.37;36.22;;;26.40;54.20;;;;;;5008962;51;21029;-29
2022/08/14 04:52:48;;;;;;;81.00;42.90;;;26.40;54.30;;;;;;5007710;55;21507;-27
2022/08/14 04:57:49;;;;;;;83.60;45.38;;;26.40;54.40;;;;;;5007775;55;20982;-27
2022/08/14 05:02:50;;;;;;;84.65;45.50;;;26.40;54.30;;;;;;5032696;51;21045;-28
2022/08/14 05:07:51;;;;;;;88.82;46.78;;;26.40;54.30;;;;;;5033875;51;20971;-27
2022/08/14 05:12:52;;;;;;;92.80;48.20;;;26.40;54.20;;;;;;5088193;51;21456;-28
2022/08/14 05:17:53;;;;;;;92.55;48.50;;;26.40;54.30;;;;;;5021172;51;21052;-27
2022/08/14 05:22:54;;;;;;;92.80;48.87;;;26.40;54.20;;;;;;5008649;55;21009;-28
2022/08/14 05:27:59;;;;;;;94.85;48.78;;;26.40;54.30;;;;;;5034051;51;21452;-27
2022/08/14 05:33:00;;;;;;;88.57;47.40;;;26.40;54.20;;;;;;5016361;51;22293;-27
2022/08/14 05:38:08;;;;;;;97.72;48.97;;;26.40;54.20;;;;;;5019860;51;20982;-29
2022/08/14 05:43:09;;;;;;;90.72;47.25;;;26.40;54.10;;;;;;5011247;51;21507;-30
2022/08/14 05:48:13;;;;;;;88.22;47.47;;;26.40;54.10;;;;;;5010500;51;20982;-30
2022/08/14 05:53:14;;;;;;;94.13;49.08;;;26.40;54.10;;;;;;5015534;51;21579;-28
2022/08/14 05:58:15;;;;;;;87.28;47.88;;;26.40;54.20;;;;;;5008280;55;21069;-29
2022/08/14 06:03:19;;;;;;;80.78;45.55;;;26.40;54.10;;;;;;5022163;51;21006;-29
2022/08/14 06:08:28;;;;;;;86.65;44.95;;;26.40;54.70;;;;;;5039679;51;20994;-27
2022/08/14 06:13:31;;;;;;;89.40;47.05;;;26.40;54.10;;;;;;5035393;51;20966;-28
2022/08/14 06:18:34;;;;;;;93.55;47.42;;;26.40;54.10;;;;;;5015417;51;21520;-36
2022/08/14 06:23:35;;;;;;;87.78;47.70;;;26.40;54.30;;;;;;5073211;51;21492;-29
2022/08/14 06:28:38;;;;;;;90.25;47.72;;;26.40;54.20;;;;;;5008766;51;20970;-30
2022/08/14 06:33:39;;;;;;;87.40;46.63;;;26.40;54.20;;;;;;5007250;55;20998;-33
2022/08/14 06:38:40;;;;;;;87.90;45.63;;;26.40;54.20;;;;;;5010516;51;21446;-27
2022/08/14 06:43:41;;;;;;;96.30;47.88;;;26.40;54.20;;;;;;5008276;55;21005;-36
2022/08/14 06:48:42;;;;;;;84.62;46.63;;;26.40;54.20;;;;;;5024701;51;21555;-29
2022/08/14 06:53:43;;;;;;;83.30;46.25;;;26.40;54.20;;;;;;5010513;51;21017;-25
2022/08/14 06:58:43;;;;;;;87.00;45.80;;;26.40;54.20;;;;;;5064126;51;20986;-28
2022/08/14 07:09:03;;;;;;;89.05;46.55;;;26.40;54.30;;;;;;5054765;51;21021;-30
2022/08/14 07:14:04;;;;;;;86.32;45.12;;;26.30;54.30;;;;;;5011584;51;21061;-38
2022/08/14 07:19:07;;;;;;;86.63;44.90;;;26.30;54.30;;;;;;5007682;52;21029;-35
2022/08/14 07:24:11;;;;;;;89.72;47.62;;;26.40;54.40;;;;;;5009047;51;21180;-27
2022/08/14 07:29:12;;;;;;;83.50;45.08;;;26.40;54.40;;;;;;5056930;51;21488;-31
2022/08/14 07:34:12;;;;;;;82.60;44.85;;;26.30;55.10;;;;;;5013762;51;21002;-30
2022/08/14 07:39:13;;;;;;;83.75;44.70;;;26.40;54.60;;;;;;5048308;51;20974;-27
2022/08/14 07:44:14;;;;;;;86.40;44.85;;;26.40;54.40;;;;;;5032833;51;20994;-27
2022/08/14 07:49:15;;;;;;;86.68;45.10;;;26.30;54.40;;;;;;5014613;51;20974;-29
2022/08/14 07:54:17;;;;;;;79.72;40.40;;;26.40;54.50;;;;;;5034283;51;21045;-27
2022/08/14 07:59:20;;;;;;;80.62;43.42;;;26.30;54.40;;;;;;5027301;51;21504;-27
2022/08/14 08:04:25;;;;;;;76.80;41.88;;;26.30;54.50;;;;;;5006716;55;22151;-28
2022/08/14 08:09:27;;;;;;;77.93;42.47;;;26.40;54.60;;;;;;5019904;51;21432;-29
2022/08/14 08:14:29;;;;;;;74.37;40.35;;;26.40;54.60;;;;;;5052634;51;21026;-30
2022/08/14 08:19:30;;;;;;;78.47;41.08;;;26.30;54.50;;;;;;5022249;51;21591;-29
2022/08/14 08:24:34;;;;;;;70.55;39.60;;;26.40;54.70;;;;;;5016735;51;21080;-32
2022/08/14 08:29:35;;;;;;;77.87;39.92;;;26.40;54.60;;;;;;5007825;55;21515;-32
2022/08/14 08:34:47;;;;;;;75.45;39.97;;;26.40;54.70;;;;;;5060542;51;20983;-32
2022/08/14 08:39:48;;;;;;;77.25;39.08;;;26.40;54.70;;;;;;5032477;51;21456;-29
2022/08/14 08:44:54;;;;;;;81.55;38.95;;;26.40;54.70;;;;;;5006442;52;21531;-30
2022/08/14 08:49:55;;;;;;;;;;;26.30;54.70;;;;;;5044162;51;20987;-29
2022/08/14 08:54:56;;;;;;;75.57;37.13;;;26.40;54.90;;;;;;5041171;51;20071;-30
2022/08/14 09:00:01;;;;;;;76.68;39.20;;;26.40;54.80;;;;;;5013002;51;21448;-30
2022/08/14 09:05:03;;;;;;;73.28;38.90;;;26.40;54.80;;;;;;5034698;51;21575;-27
2022/08/14 09:10:04;;;;;;;82.60;42.38;;;26.40;54.90;;;;;;5034540;51;21029;-26
2022/08/14 09:15:08;;;;;;;81.97;42.55;;;26.40;54.90;;;;;;5022635;51;21206;-30
2022/08/14 09:20:11;;;;;;;76.25;40.40;;;26.40;54.90;;;;;;5063251;51;21917;-30
2022/08/14 09:25:12;;;;;;;71.00;40.53;;;26.40;55.00;;;;;;5007153;55;21487;-31
2022/08/14 09:30:14;;;;;;;74.85;42.25;;;26.40;55.00;;;;;;5013703;51;20993;-27
2022/08/14 09:35:37;;;;;;;72.45;40.90;;;26.40;55.00;;;;;;5031115;51;21038;-34
2022/08/14 09:41:22;;;;;;;70.55;42.20;;;26.40;55.10;;;;;;5009328;51;21042;-31
2022/08/14 09:46:26;;;;;;;77.18;43.53;;;26.40;55.10;;;;;;5018980;51;21124;-34
2022/08/14 09:51:29;;;;;;;74.78;42.67;;;26.40;55.10;;;;;;5011891;51;21527;-30
2022/08/14 09:56:42;;;;;;;78.22;44.55;;;26.40;55.10;;;;;;5022706;51;21496;-35
2022/08/14 10:01:44;;;;;;;85.12;45.00;;;26.40;55.10;;;;;;5045334;51;21512;-29
2022/08/14 10:06:45;;;;;;;86.93;44.25;;;26.40;55.20;;;;;;5017639;51;21576;-33
2022/08/14 10:11:58;;;;;;;83.05;44.33;;;26.40;55.20;;;;;;5011398;51;20990;-36
2022/08/14 10:17:01;;;;;;;84.93;45.38;;;26.40;55.20;;;;;;5011287;51;21014;-32
2022/08/14 10:22:10;;;;;;;81.10;44.05;;;26.40;55.20;;;;;;5049602;51;21467;-29
2022/08/14 10:27:22;;;;;;;78.35;44.47;;;26.40;55.20;;;;;;5008077;55;21472;-27
2022/08/14 10:32:24;;;;;;;84.07;46.58;;;26.40;55.20;;;;;;5021401;51;21527;-30
2022/08/14 10:37:41;;;;;;;79.15;47.00;;;26.40;55.30;;;;;;5012236;51;21429;-27
2022/08/14 10:42:42;;;;;;;85.05;47.17;;;26.40;55.20;;;;;;5033925;51;21073;-33
2022/08/14 10:47:43;;;;;;;81.93;48.22;;;26.40;55.30;;;;;;5041871;51;21045;-30
2022/08/14 10:52:45;;;;;;;81.57;47.75;;;26.40;55.30;;;;;;5025640;51;20970;-29
2022/08/14 10:57:51;;;;;;;85.53;48.92;;;26.40;55.30;;;;;;5007612;55;22222;-29
2022/08/14 11:03:01;;;;;;;80.60;47.58;;;26.40;55.30;;;;;;5042824;51;20989;-27
2022/08/14 11:08:02;;;;;;;84.35;50.38;;;26.40;55.50;;;;;;5044198;51;20958;-32
2022/08/14 11:13:03;;;;;;;79.47;49.38;;;26.40;55.40;;;;;;5007271;55;21013;-30
2022/08/14 11:18:04;;;;;;;84.15;50.20;;;26.40;55.40;;;;;;5006862;55;21655;-27
2022/08/14 11:23:08;;;;;;;77.97;48.40;;;26.40;55.50;;;;;;5043873;51;21062;-36
2022/08/14 11:28:10;;;;;;;79.37;48.83;;;26.40;55.50;;;;;;5011649;51;21009;-29
2022/08/14 11:33:12;;;;;;;77.68;48.65;;;26.40;55.50;;;;;;5031656;51;20982;-28
2022/08/14 11:38:12;;;;;;;77.22;49.10;;;26.40;55.50;;;;;;5027404;51;21053;-31
2022/08/14 11:43:15;;;;;;;72.37;48.45;;;26.40;55.50;;;;;;5026645;51;21030;-31
2022/08/14 11:48:27;;;;;;;71.43;47.20;;;26.40;55.50;;;;;;5008886;55;20997;-30
2022/08/14 11:53:30;;;;;;;69.47;46.75;;;26.40;55.50;;;;;;5008040;55;21505;-33
2022/08/14 11:58:34;;;;;;;74.72;48.30;;;26.40;55.50;;;;;;5025422;51;21503;-28
2022/08/14 12:03:45;;;;;;;75.22;47.28;;;26.40;55.50;;;;;;5035178;51;21002;-31
2022/08/14 12:08:49;;;;;;;63.60;44.03;;;26.40;55.60;;;;;;5017195;51;21022;-29
2022/08/14 12:13:50;;;;;;;68.57;46.97;;;26.40;55.60;;;;;;5014502;51;21480;-30
2022/08/14 12:18:57;;;;;;;64.35;44.53;;;26.40;55.50;;;;;;5030780;51;20978;-30
2022/08/14 12:24:08;;;;;;;62.22;42.80;;;26.40;55.60;;;;;;5056926;51;20990;-26
2022/08/14 12:29:11;;;;;;;60.47;42.00;;;26.40;55.50;;;;;;5041651;51;21077;-28
2022/08/14 12:34:19;;;;;;;55.28;41.83;;;26.40;55.50;;;;;;5025579;51;21051;-34
2022/08/14 12:39:22;;;;;;;58.78;41.75;;;26.40;55.50;;;;;;5028025;51;22346;-29
2022/08/14 12:44:31;;;;;;;62.15;42.20;;;26.40;55.50;;;;;;5022565;51;21507;-30
2022/08/14 12:49:33;;;;;;;59.10;41.50;;;26.40;55.50;;;;;;5017124;51;20966;-27
2022/08/14 12:54:34;;;;;;;52.60;38.58;;;26.40;55.60;;;;;;5037872;51;21468;-32
2022/08/14 12:59:35;;;;;;;51.78;38.95;;;26.40;55.50;;;;;;5029526;51;21041;-30
2022/08/14 13:04:37;;;;;;;52.00;36.97;;;26.40;55.60;;;;;;5008129;51;20990;-28
2022/08/14 13:09:39;;;;;;;49.42;36.03;;;26.40;55.60;;;;;;5036637;51;20962;-28
2022/08/14 13:14:46;;;;;;;52.88;37.22;;;26.40;55.60;;;;;;5035374;51;21023;-30
2022/08/14 13:19:48;;;;;;;47.33;34.58;;;26.40;55.60;;;;;;5013381;51;21042;-36
2022/08/14 13:24:49;;;;;;;44.13;33.20;;;26.40;55.50;;;;;;5011131;51;21013;-30
2022/08/14 13:29:55;;;;;;;48.05;34.30;;;26.40;55.50;;;;;;5021235;51;21037;-29
2022/08/14 13:34:57;;;;;;;45.12;33.45;;;26.40;55.50;;;;;;5041439;51;21472;-28
2022/08/14 13:39:58;;;;;;;43.85;31.65;;;26.40;55.50;;;;;;5040965;51;21508;-30
2022/08/14 13:45:01;;;;;;;44.97;31.73;;;26.50;56.30;;;;;;5009707;51;21006;-26
2022/08/14 13:50:06;;;;;;;39.67;31.73;;;26.40;55.50;;;;;;5025788;51;20986;-29
2022/08/14 13:55:08;;;;;;;42.58;31.20;;;26.50;55.50;;;;;;5008452;51;21013;-27
2022/08/14 14:00:11;;;;;;;41.05;31.17;;;26.40;55.40;;;;;;5052980;51;20970;-28
2022/08/14 14:05:17;;;;;;;41.83;29.37;;;26.40;55.40;;;;;;5006406;55;20971;-26
2022/08/14 14:10:20;;;;;;;39.40;29.10;;;26.40;55.40;;;;;;5105685;51;21130;-35
2022/08/14 14:15:21;;;;;;;38.05;28.48;;;26.50;55.50;;;;;;5007339;55;21582;-34
2022/08/14 14:20:25;;;;;;;40.40;29.12;;;26.40;55.40;;;;;;5007361;55;20974;-35
2022/08/14 14:25:26;;;;;;;34.70;28.27;;;26.50;55.40;;;;;;5007423;51;21463;-27
2022/08/14 14:30:29;;;;;;;35.75;26.95;;;26.40;55.30;;;;;;5008202;51;20978;-30
2022/08/14 14:35:33;;;;;;;33.50;26.55;;;26.50;55.40;;;;;;5107019;51;21484;-27
2022/08/14 14:40:37;;;;;;;34.35;26.75;;;26.50;55.40;;;;;;5029198;51;21094;-29
2022/08/14 14:45:39;;;;;;;34.22;25.35;;;26.40;55.30;;;;;;5021058;51;21551;-31
2022/08/14 14:50:41;;;;;;;31.90;25.40;;;26.50;55.30;;;;;;5021969;51;21065;-34
2022/08/14 14:55:45;;;;;;;28.73;24.52;;;26.40;55.30;;;;;;5018938;51;21354;-31
2022/08/14 15:00:46;;;;;;;29.77;23.58;;;26.50;55.30;;;;;;5124846;51;20991;-27
2022/08/14 15:05:52;;;;;;;30.52;23.38;;;26.50;55.30;;;;;;5012813;51;21082;-32
2022/08/14 15:10:52;;;;;;;30.55;24.02;;;26.50;55.30;;;;;;5012542;51;21517;-25
2022/08/14 15:15:56;;;;;;;31.98;24.12;;;26.50;55.40;;;;;;5061393;51;21133;-30
2022/08/14 15:21:00;;;;;;;26.73;22.48;;;26.40;55.20;;;;;;5046977;51;20998;-33
2022/08/14 15:26:00;;;;;;;29.20;23.17;;;26.50;55.20;;;;;;5082763;51;22236;-32
2022/08/14 15:31:04;;;;;;;24.83;21.40;;;26.50;55.30;;;;;;5027207;51;21014;-32
2022/08/14 15:36:06;;;;;;;25.20;20.67;;;26.50;55.10;;;;;;5063153;51;21088;-29
2022/08/14 15:41:07;;;;;;;26.02;20.70;;;26.50;55.10;;;;;;5080439;51;21017;-28
2022/08/14 15:46:08;;;;;;;26.00;20.42;;;26.50;55.10;;;;;;5016276;51;21030;-35
2022/08/14 15:51:08;;;;;;;28.00;20.85;;;26.50;55.10;;;;;;5015936;51;21483;-27
2022/08/14 15:56:09;;;;;;;27.75;21.23;;;26.50;55.10;;;;;;5035999;51;21567;-30
2022/08/14 16:01:19;;;;;;;27.70;20.60;;;26.50;55.10;;;;;;5007935;55;21058;-30
2022/08/14 16:06:28;;;;;;;29.48;21.37;;;26.40;55.00;;;;;;5065876;51;21009;-35
2022/08/14 16:11:29;;;;;;;28.77;20.98;;;26.40;55.00;;;;;;5008046;55;21444;-31
2022/08/14 16:16:30;;;;;;;28.70;21.60;;;26.50;55.10;;;;;;5007313;52;21016;-27
2022/08/14 16:21:33;;;;;;;31.23;21.60;;;26.50;55.10;;;;;;5079340;51;22050;-35
2022/08/14 16:26:34;;;;;;;32.55;22.62;;;26.50;55.10;;;;;;5021033;51;21033;-31
2022/08/14 16:31:35;;;;;;;29.77;21.98;;;26.50;55.10;;;;;;5019628;51;20962;-27
2022/08/14 16:36:36;;;;;;;30.15;21.50;;;26.50;55.10;;;;;;5030668;51;21539;-29
2022/08/14 16:41:38;;;;;;;26.77;20.90;;;26.50;55.10;;;;;;5055185;51;21546;-28
2022/08/14 16:46:44;;;;;;;28.45;21.48;;;26.50;55.10;;;;;;5007946;52;21009;-28
2022/08/14 16:51:45;;;;;;;29.90;22.05;;;26.50;55.10;;;;;;5019848;51;20997;-28
2022/08/14 16:56:46;;;;;;;28.35;21.33;;;26.50;55.20;;;;;;5007967;55;20990;-27
2022/08/14 17:01:59;;;;;;;28.55;21.23;;;26.50;55.20;;;;;;5009572;51;21477;-32
2022/08/14 17:07:03;;;;;;;28.33;20.98;;;26.50;55.20;;;;;;5042751;51;21022;-36
2022/08/14 17:12:13;;;;;;;26.73;20.55;;;26.50;55.20;;;;;;5042011;51;20962;-27
2022/08/14 17:17:14;;;;;;;29.95;21.77;;;26.50;55.20;;;;;;5014966;51;21054;-27
2022/08/14 17:22:16;;;;;;;28.65;21.85;;;26.50;55.20;;;;;;5013230;51;21069;-32
2022/08/14 17:27:21;;;;;;;26.92;21.62;;;26.50;55.30;;;;;;5008011;55;21535;-29
2022/08/14 17:32:29;;;;;;;26.17;19.93;;;26.50;55.20;;;;;;5072838;51;21558;-30
2022/08/14 17:37:42;;;;;;;26.58;20.70;;;26.50;55.20;;;;;;5008198;55;21519;-31
2022/08/14 17:43:01;;;;;;;24.75;19.23;;;26.50;55.20;;;;;;5006843;55;20946;-35
2022/08/14 17:48:07;;;;;;;24.75;20.05;;;26.50;55.30;;;;;;5008579;53;21245;-31
2022/08/14 17:53:09;;;;;;;25.65;19.65;;;26.50;55.30;;;;;;5026637;51;21881;-29
2022/08/14 17:58:18;;;;;;;25.42;19.87;;;26.50;55.40;;;;;;5054068;51;21057;-28
2022/08/14 18:03:20;;;;;;;23.98;18.25;;;26.50;55.50;;;;;;5048558;51;21448;-28
2022/08/14 18:08:21;;;;;;;21.05;18.35;;;26.50;55.50;;;;;;5037940;51;21468;-29
2022/08/14 18:13:22;;;;;;;23.25;19.12;;;26.50;55.60;;;;;;5010873;51;20993;-33
2022/08/14 18:18:24;;;;;;;24.30;19.37;;;26.50;55.80;;;;;;5007820;51;21030;-32
2022/08/14 18:23:25;;;;;;;23.35;18.05;;;26.50;55.90;;;;;;5008467;51;23045;-26
2022/08/14 18:28:31;;;;;;;24.40;18.40;;;26.50;56.00;;;;;;5007787;51;20982;-35
2022/08/14 18:33:36;;;;;;;19.58;17.48;;;26.50;56.10;;;;;;5108159;51;21033;-27
2022/08/14 18:38:37;;;;;;;23.42;18.45;;;26.50;56.20;;;;;;5008219;55;21045;-30
2022/08/14 18:43:47;;;;;;;20.23;18.05;;;26.50;56.30;;;;;;5069773;51;21174;-30
2022/08/14 18:49:13;;;;;;;22.10;18.15;;;26.50;56.40;;;;;;5035400;51;21544;-27
2022/08/14 18:54:27;;;;;;;20.37;18.00;;;26.50;56.50;;;;;;5018872;51;21028;-37
2022/08/14 18:59:31;;;;;;;20.92;18.45;;;26.50;56.60;;;;;;5023647;51;21595;-28
2022/08/14 19:04:36;;;;;;;21.37;18.25;;;26.50;56.70;;;;;;5067683;51;21001;-33
2022/08/14 19:09:52;;;;;;;19.98;17.15;;;26.50;56.80;;;;;;5036281;51;20990;-27
2022/08/14 19:15:09;;;;;;;19.05;16.85;;;26.50;56.90;;;;;;5010051;51;21037;-34
2022/08/14 19:20:12;;;;;;;19.20;16.85;;;26.50;57.00;;;;;;5007654;51;20990;-29
2022/08/14 19:25:53;;;;;;;18.58;16.58;;;26.50;57.10;;;;;;5066730;51;20982;-32
2022/08/14 19:33:51;;;;;;;19.20;16.40;;;26.50;57.30;;;;;;5022185;51;21523;-28
2022/08/14 19:38:57;;;;;;;18.85;16.50;;;26.50;57.50;;;;;;5020302;51;21483;-36
2022/08/14 19:44:15;;;;;;;18.37;16.48;;;26.50;57.50;;;;;;5036139;51;20990;-34
2022/08/14 19:49:17;;;;;;;20.67;16.35;;;26.50;57.50;;;;;;5016317;51;21053;-31
2022/08/14 19:54:28;;;;;;;19.08;16.27;;;26.50;57.70;;;;;;5036562;51;20987;-26
2022/08/14 19:59:29;;;;;;;17.67;15.23;;;26.50;57.60;;;;;;5028749;51;21564;-30
2022/08/14 20:04:30;;;;;;;17.52;15.30;;;26.50;57.60;;;;;;5015701;51;21045;-28
2022/08/14 20:09:41;;;;;;;16.62;14.90;;;26.50;57.60;;;;;;5008093;55;21464;-30
2022/08/14 20:14:43;;;;;;;17.23;15.18;;;26.50;57.70;;;;;;5020396;51;21026;-29
2022/08/14 20:19:44;;;;;;;19.60;15.07;;;26.50;57.70;;;;;;5010536;51;21986;-28
2022/08/14 20:24:46;;;;;;;16.65;13.60;;;26.50;57.80;;;;;;5059137;51;21128;-31
2022/08/14 20:30:02;;;;;;;16.62;14.38;;;26.40;57.80;;;;;;5024409;51;21057;-26
2022/08/14 20:35:06;;;;;;;15.52;13.77;;;26.40;57.80;;;;;;5027263;51;21498;-28
2022/08/14 20:40:21;;;;;;;15.70;14.10;;;26.50;57.90;;;;;;5070504;51;21522;-29
2022/08/14 20:45:23;;;;;;;15.73;13.45;;;26.50;58.00;;;;;;5052890;51;21028;-27
2022/08/14 20:50:26;;;;;;;20.33;14.87;;;26.40;58.00;;;;;;5047834;51;21528;-27
2022/08/14 20:55:36;;;;;;;20.48;15.25;;;26.40;58.00;;;;;;5048548;51;21527;-33
2022/08/14 21:00:40;;;;;;;16.27;14.43;;;26.50;58.00;;;;;;5050483;51;21502;-26
2022/08/14 21:05:41;;;;;;;19.08;14.50;;;26.40;58.00;;;;;;5027020;51;21565;-29
2022/08/14 21:10:43;;;;;;;15.63;13.15;;;26.50;58.00;;;;;;5028509;51;20995;-35
2022/08/14 21:15:45;;;;;;;16.02;13.88;;;26.40;58.00;;;;;;5024817;51;21523;-27
2022/08/14 21:20:46;;;;;;;15.57;13.93;;;26.40;58.00;;;;;;5024772;51;21587;-29
2022/08/14 21:25:47;;;;;;;15.55;13.73;;;26.40;58.00;;;;;;5021562;51;21060;-32
2022/08/14 21:30:51;;;;;;;18.12;14.18;;;26.40;58.00;;;;;;5014090;51;21089;-27
2022/08/14 21:35:54;;;;;;;16.58;13.43;;;26.40;57.90;;;;;;5018896;51;21971;-37
2022/08/14 21:40:56;;;;;;;16.55;13.32;;;26.40;57.90;;;;;;5035567;51;21057;-27
2022/08/14 21:45:57;;;;;;;16.45;13.55;;;26.40;57.90;;;;;;5014523;51;21022;-31
2022/08/14 21:51:01;;;;;;;17.25;13.38;;;26.40;57.90;;;;;;5015708;51;21498;-31
2022/08/14 21:56:04;;;;;;;16.25;13.40;;;26.40;57.90;;;;;;5010167;51;21511;-36
2022/08/14 22:01:05;;;;;;;14.52;13.02;;;26.40;57.90;;;;;;5022345;51;21046;-26
2022/08/14 22:06:06;;;;;;;15.07;12.93;;;26.40;57.90;;;;;;5065056;51;21539;-27
2022/08/14 22:11:07;;;;;;;17.73;13.32;;;26.40;57.90;;;;;;5032917;51;21468;-39
2022/08/14 22:16:09;;;;;;;16.50;13.50;;;26.40;57.90;;;;;;5007728;52;21636;-31
2022/08/14 22:21:10;;;;;;;15.05;13.00;;;26.40;57.80;;;;;;5008250;55;21538;-28
2022/08/14 22:26:11;;;;;;;13.80;12.32;;;26.40;57.80;;;;;;5058008;51;21013;-28
2022/08/14 22:31:16;;;;;;;14.35;12.82;;;26.40;57.80;;;;;;5021471;51;21005;-29
2022/08/14 22:41:37;;;;;;;15.88;12.73;;;26.40;57.80;;;;;;5006930;51;20994;-26
2022/08/14 22:46:38;;;;;;;13.73;12.32;;;26.40;57.70;;;;;;5037487;51;20986;-30
2022/08/14 22:51:39;;;;;;;17.27;12.30;;;26.40;57.70;;;;;;5028175;51;20994;-29
2022/08/14 22:56:40;;;;;;;13.57;12.18;;;26.40;57.60;;;;;;5016656;51;21520;-36
2022/08/14 23:01:51;;;;;;;14.35;12.63;;;26.40;57.60;;;;;;5020316;51;20998;-28
2022/08/14 23:06:52;;;;;;;14.35;12.85;;;26.40;57.50;;;;;;5008034;55;21009;-27
2022/08/14 23:11:55;;;;;;;13.48;12.15;;;26.40;57.50;;;;;;5035164;51;21029;-28
2022/08/14 23:16:56;;;;;;;14.27;12.77;;;26.40;57.50;;;;;;5074096;51;21504;-27
2022/08/14 23:21:58;;;;;;;13.20;11.80;;;26.40;57.60;;;;;;5008514;55;21025;-28
2022/08/14 23:26:59;;;;;;;13.82;12.37;;;26.40;57.40;;;;;;5044103;51;21492;-29
2022/08/14 23:32:00;;;;;;;15.38;11.65;;;26.30;57.30;;;;;;5030124;51;20982;-28
2022/08/14 23:37:01;;;;;;;13.60;12.20;;;26.40;57.30;;;;;;5059988;51;21053;-28
2022/08/14 23:42:08;;;;;;;13.43;11.65;;;26.30;57.30;;;;;;5024538;51;21005;-28
2022/08/14 23:47:09;;;;;;;13.40;12.00;;;26.40;57.40;;;;;;5048310;51;21025;-31
2022/08/14 23:52:11;;;;;;;14.63;11.52;;;26.30;57.20;;;;;;5051246;51;21496;-30
2022/08/14 23:57:12;;;;;;;12.75;11.20;;;26.30;57.20;;;;;;5008257;55;21444;-37
